sensor_id;sensor_type;location;lat;lon;timestamp;pressure;altitude;pressure_sealevel;temperature;humidity
46846;BME280;33947;46.804;134.252;2022-07-15T00:01:35;99952.81;;;27.74;54.51
46846;BME280;33947;46.804;134.252;2022-07-15T00:04:40;99949.22;;;27.73;54.06
46846;BME280;33947;46.804;134.252;2022-07-15T00:07:44;99945.75;;;27.47;54.58
46846;BME280;33947;46.804;134.252;2022-07-15T00:10:48;99941.53;;;27.09;53.58
46846;BME280;33947;46.804;134.252;2022-07-15T00:13:52;99942.69;;;27.07;54.95
46846;BME280;33947;46.804;134.252;2022-07-15T00:17:04;99948.38;;;27.73;54.65
46846;BME280;33947;46.804;134.252;2022-07-15T00:20:10;99927.44;;;28.15;52.84
46846;BME280;33947;46.804;134.252;2022-07-15T00:23:15;99942.03;;;28.80;51.14
46846;BME280;33947;46.804;134.252;2022-07-15T00:26:19;99945.72;;;29.36;53.29
46846;BME280;33947;46.804;134.252;2022-07-15T00:29:24;99940.03;;;30.00;51.74
46846;BME280;33947;46.804;134.252;2022-07-15T00:32:29;99941.97;;;30.53;48.96
46846;BME280;33947;46.804;134.252;2022-07-15T00:35:33;99941.50;;;31.76;51.34
46846;BME280;33947;46.804;134.252;2022-07-15T00:38:38;99938.72;;;32.20;44.91
46846;BME280;33947;46.804;134.252;2022-07-15T00:41:43;99938.66;;;32.35;43.56
46846;BME280;33947;46.804;134.252;2022-07-15T00:44:47;99937.50;;;31.42;45.96
46846;BME280;33947;46.804;134.252;2022-07-15T00:47:53;99942.38;;;30.65;46.94
46846;BME280;33947;46.804;134.252;2022-07-15T00:50:57;99941.34;;;30.81;47.57
46846;BME280;33947;46.804;134.252;2022-07-15T00:54:04;99935.78;;;30.74;50.00
46846;BME280;33947;46.804;134.252;2022-07-15T00:57:09;99936.44;;;32.24;45.83
46846;BME280;33947;46.804;134.252;2022-07-15T01:00:14;99935.41;;;33.37;44.62
46846;BME280;33947;46.804;134.252;2022-07-15T01:03:18;99920.72;;;32.39;43.17
46846;BME280;33947;46.804;134.252;2022-07-15T01:06:23;99931.66;;;31.15;45.93
46846;BME280;33947;46.804;134.252;2022-07-15T01:09:30;99937.53;;;30.52;45.91
46846;BME280;33947;46.804;134.252;2022-07-15T01:12:34;99941.84;;;30.46;46.58
46846;BME280;33947;46.804;134.252;2022-07-15T01:15:41;99933.06;;;31.41;45.07
46846;BME280;33947;46.804;134.252;2022-07-15T01:18:47;99929.59;;;32.41;42.09
46846;BME280;33947;46.804;134.252;2022-07-15T01:21:51;99930.84;;;33.51;40.86
46846;BME280;33947;46.804;134.252;2022-07-15T01:24:56;99937.66;;;33.69;40.38
46846;BME280;33947;46.804;134.252;2022-07-15T01:28:04;99940.63;;;33.67;39.25
46846;BME280;33947;46.804;134.252;2022-07-15T01:31:09;99935.38;;;34.26;39.06
46846;BME280;33947;46.804;134.252;2022-07-15T01:34:17;99934.41;;;35.13;37.15
46846;BME280;33947;46.804;134.252;2022-07-15T01:37:22;99934.13;;;34.56;39.95
46846;BME280;33947;46.804;134.252;2022-07-15T01:40:30;99921.59;;;34.67;38.14
46846;BME280;33947;46.804;134.252;2022-07-15T01:43:37;99917.53;;;35.74;39.04
46846;BME280;33947;46.804;134.252;2022-07-15T01:46:41;99904.66;;;36.18;34.08
46846;BME280;33947;46.804;134.252;2022-07-15T01:49:46;99909.63;;;35.45;37.50
46846;BME280;33947;46.804;134.252;2022-07-15T01:52:55;99905.19;;;33.51;39.31
46846;BME280;33947;46.804;134.252;2022-07-15T01:56:02;99905.50;;;31.93;43.68
46846;BME280;33947;46.804;134.252;2022-07-15T01:59:09;99906.72;;;30.65;44.80
46846;BME280;33947;46.804;134.252;2022-07-15T02:02:14;99906.22;;;29.46;50.27
46846;BME280;33947;46.804;134.252;2022-07-15T02:05:18;99899.56;;;29.64;51.73
46846;BME280;33947;46.804;134.252;2022-07-15T02:08:25;99906.06;;;29.63;48.56
46846;BME280;33947;46.804;134.252;2022-07-15T02:11:30;99899.41;;;28.38;53.03
46846;BME280;33947;46.804;134.252;2022-07-15T02:14:34;99907.63;;;27.88;53.01
46846;BME280;33947;46.804;134.252;2022-07-15T02:17:40;99907.63;;;28.21;53.92
46846;BME280;33947;46.804;134.252;2022-07-15T02:20:45;99911.66;;;28.50;50.75
46846;BME280;33947;46.804;134.252;2022-07-15T02:23:49;99910.34;;;28.05;55.84
46846;BME280;33947;46.804;134.252;2022-07-15T02:26:54;99906.09;;;27.77;51.94
46846;BME280;33947;46.804;134.252;2022-07-15T02:29:58;99905.75;;;27.80;55.93
46846;BME280;33947;46.804;134.252;2022-07-15T02:33:08;99910.69;;;28.10;53.70
46846;BME280;33947;46.804;134.252;2022-07-15T02:36:13;99913.25;;;28.11;52.56
46846;BME280;33947;46.804;134.252;2022-07-15T02:39:21;99901.13;;;27.81;53.28
46846;BME280;33947;46.804;134.252;2022-07-15T02:42:29;99903.84;;;27.72;53.30
46846;BME280;33947;46.804;134.252;2022-07-15T02:45:36;99888.66;;;27.53;53.07
46846;BME280;33947;46.804;134.252;2022-07-15T02:48:43;99887.56;;;27.29;50.72
46846;BME280;33947;46.804;134.252;2022-07-15T02:51:48;99884.25;;;27.01;56.71
46846;BME280;33947;46.804;134.252;2022-07-15T02:54:54;99889.41;;;27.21;59.40
46846;BME280;33947;46.804;134.252;2022-07-15T02:57:59;99877.50;;;27.38;55.67
46846;BME280;33947;46.804;134.252;2022-07-15T03:01:03;99877.31;;;27.23;57.16
46846;BME280;33947;46.804;134.252;2022-07-15T03:04:08;99869.19;;;27.32;54.57
46846;BME280;33947;46.804;134.252;2022-07-15T03:07:13;99874.91;;;27.12;55.97
46846;BME280;33947;46.804;134.252;2022-07-15T03:10:17;99877.16;;;27.16;56.17
46846;BME280;33947;46.804;134.252;2022-07-15T03:13:23;99874.22;;;27.10;59.78
46846;BME280;33947;46.804;134.252;2022-07-15T03:16:28;99877.81;;;27.10;56.48
46846;BME280;33947;46.804;134.252;2022-07-15T03:19:33;99881.56;;;27.09;55.71
46846;BME280;33947;46.804;134.252;2022-07-15T03:22:38;99875.44;;;27.15;55.89
46846;BME280;33947;46.804;134.252;2022-07-15T03:25:43;99874.56;;;27.15;55.37
46846;BME280;33947;46.804;134.252;2022-07-15T03:28:49;99872.72;;;27.24;55.20
46846;BME280;33947;46.804;134.252;2022-07-15T03:31:54;99875.97;;;27.27;54.49
46846;BME280;33947;46.804;134.252;2022-07-15T03:35:00;99876.16;;;27.34;54.97
46846;BME280;33947;46.804;134.252;2022-07-15T03:38:09;99873.94;;;27.29;54.66
46846;BME280;33947;46.804;134.252;2022-07-15T03:41:13;99867.53;;;27.04;55.31
46846;BME280;33947;46.804;134.252;2022-07-15T03:44:18;99862.78;;;27.06;55.33
46846;BME280;33947;46.804;134.252;2022-07-15T03:47:22;99862.50;;;26.83;56.61
46846;BME280;33947;46.804;134.252;2022-07-15T03:50:28;99854.84;;;26.78;55.74
46846;BME280;33947;46.804;134.252;2022-07-15T03:53:35;99856.06;;;26.84;56.00
46846;BME280;33947;46.804;134.252;2022-07-15T03:56:40;99850.34;;;27.04;55.81
46846;BME280;33947;46.804;134.252;2022-07-15T03:59:44;99858.53;;;27.04;57.56
46846;BME280;33947;46.804;134.252;2022-07-15T04:02:48;99857.31;;;26.98;57.79
46846;BME280;33947;46.804;134.252;2022-07-15T04:05:53;99853.44;;;27.09;56.00
46846;BME280;33947;46.804;134.252;2022-07-15T04:08:57;99858.59;;;27.28;56.09
46846;BME280;33947;46.804;134.252;2022-07-15T04:12:03;99859.44;;;27.45;57.45
46846;BME280;33947;46.804;134.252;2022-07-15T04:15:13;99851.13;;;27.47;55.49
46846;BME280;33947;46.804;134.252;2022-07-15T04:18:23;99853.53;;;27.50;55.56
46846;BME280;33947;46.804;134.252;2022-07-15T04:21:34;99849.91;;;27.25;56.55
46846;BME280;33947;46.804;134.252;2022-07-15T04:24:40;99850.03;;;27.15;58.21
46846;BME280;33947;46.804;134.252;2022-07-15T04:27:48;99844.94;;;27.20;60.38
46846;BME280;33947;46.804;134.252;2022-07-15T04:30:57;99849.56;;;27.44;57.63
46846;BME280;33947;46.804;134.252;2022-07-15T04:34:11;99844.47;;;27.50;55.56
46846;BME280;33947;46.804;134.252;2022-07-15T04:37:20;99843.50;;;27.51;56.71
46846;BME280;33947;46.804;134.252;2022-07-15T04:40:29;99846.16;;;27.42;56.09
46846;BME280;33947;46.804;134.252;2022-07-15T04:43:37;99835.09;;;27.44;55.73
46846;BME280;33947;46.804;134.252;2022-07-15T04:46:46;99841.84;;;27.07;57.62
46846;BME280;33947;46.804;134.252;2022-07-15T04:50:07;99840.63;;;27.01;55.97
46846;BME280;33947;46.804;134.252;2022-07-15T04:53:30;99844.78;;;27.30;56.88
46846;BME280;33947;46.804;134.252;2022-07-15T04:56:34;99850.28;;;27.47;54.76
46846;BME280;33947;46.804;134.252;2022-07-15T04:59:41;99849.28;;;27.56;55.57
46846;BME280;33947;46.804;134.252;2022-07-15T05:02:49;99843.44;;;27.42;57.51
46846;BME280;33947;46.804;134.252;2022-07-15T05:05:54;99833.19;;;27.11;58.13
46846;BME280;33947;46.804;134.252;2022-07-15T05:09:07;99835.44;;;26.81;59.23
46846;BME280;33947;46.804;134.252;2022-07-15T05:12:12;99839.91;;;26.91;57.60
46846;BME280;33947;46.804;134.252;2022-07-15T05:15:29;99832.44;;;27.01;55.92
46846;BME280;33947;46.804;134.252;2022-07-15T05:18:43;99838.22;;;26.90;56.22
46846;BME280;33947;46.804;134.252;2022-07-15T05:21:52;99836.66;;;26.87;57.07
46846;BME280;33947;46.804;134.252;2022-07-15T05:24:56;99837.97;;;26.83;57.49
46846;BME280;33947;46.804;134.252;2022-07-15T05:28:01;99834.28;;;26.84;58.06
46846;BME280;33947;46.804;134.252;2022-07-15T05:31:06;99838.06;;;26.91;56.53
46846;BME280;33947;46.804;134.252;2022-07-15T05:34:11;99832.13;;;27.04;55.44
46846;BME280;33947;46.804;134.252;2022-07-15T05:37:16;99832.50;;;27.18;56.68
46846;BME280;33947;46.804;134.252;2022-07-15T05:40:21;99830.13;;;27.23;54.64
46846;BME280;33947;46.804;134.252;2022-07-15T05:43:28;99825.69;;;27.13;55.56
46846;BME280;33947;46.804;134.252;2022-07-15T05:46:33;99827.66;;;26.86;58.21
46846;BME280;33947;46.804;134.252;2022-07-15T05:49:39;99825.56;;;26.80;57.18
46846;BME280;33947;46.804;134.252;2022-07-15T05:52:45;99826.34;;;26.64;55.41
46846;BME280;33947;46.804;134.252;2022-07-15T05:55:51;99820.66;;;26.49;57.05
46846;BME280;33947;46.804;134.252;2022-07-15T05:58:57;99818.56;;;26.35;56.96
46846;BME280;33947;46.804;134.252;2022-07-15T06:02:07;99818.50;;;26.26;56.71
46846;BME280;33947;46.804;134.252;2022-07-15T06:05:13;99822.09;;;26.27;57.27
46846;BME280;33947;46.804;134.252;2022-07-15T06:08:23;99814.38;;;26.22;59.71
46846;BME280;33947;46.804;134.252;2022-07-15T06:11:27;99813.09;;;26.08;60.18
46846;BME280;33947;46.804;134.252;2022-07-15T06:14:33;99823.34;;;26.14;60.03
46846;BME280;33947;46.804;134.252;2022-07-15T06:17:46;99815.63;;;26.28;57.83
46846;BME280;33947;46.804;134.252;2022-07-15T06:20:53;99808.69;;;26.34;57.80
46846;BME280;33947;46.804;134.252;2022-07-15T06:23:58;99815.53;;;26.46;59.26
46846;BME280;33947;46.804;134.252;2022-07-15T06:27:02;99809.66;;;26.33;57.99
46846;BME280;33947;46.804;134.252;2022-07-15T06:30:08;99823.34;;;26.41;58.94
46846;BME280;33947;46.804;134.252;2022-07-15T06:33:13;99816.03;;;26.41;57.54
46846;BME280;33947;46.804;134.252;2022-07-15T06:36:17;99814.50;;;26.39;59.43
46846;BME280;33947;46.804;134.252;2022-07-15T06:39:21;99819.63;;;26.42;57.48
46846;BME280;33947;46.804;134.252;2022-07-15T06:42:25;99819.63;;;26.42;56.79
46846;BME280;33947;46.804;134.252;2022-07-15T06:45:36;99817.53;;;26.36;57.35
46846;BME280;33947;46.804;134.252;2022-07-15T06:48:40;99816.69;;;26.35;57.09
46846;BME280;33947;46.804;134.252;2022-07-15T06:51:45;99816.53;;;26.37;57.94
46846;BME280;33947;46.804;134.252;2022-07-15T06:54:53;99815.53;;;26.46;56.78
46846;BME280;33947;46.804;134.252;2022-07-15T06:57:58;99824.63;;;26.55;55.17
46846;BME280;33947;46.804;134.252;2022-07-15T07:01:03;99819.34;;;26.62;56.28
46846;BME280;33947;46.804;134.252;2022-07-15T07:04:07;99831.09;;;26.62;55.70
46846;BME280;33947;46.804;134.252;2022-07-15T07:07:11;99822.00;;;26.45;55.96
46846;BME280;33947;46.804;134.252;2022-07-15T07:10:16;99829.16;;;26.46;55.05
46846;BME280;33947;46.804;134.252;2022-07-15T07:13:27;99832.09;;;26.53;55.74
46846;BME280;33947;46.804;134.252;2022-07-15T07:16:31;99829.53;;;26.51;56.71
46846;BME280;33947;46.804;134.252;2022-07-15T07:19:36;99825.44;;;26.55;56.30
46846;BME280;33947;46.804;134.252;2022-07-15T07:22:40;99824.28;;;26.58;57.08
46846;BME280;33947;46.804;134.252;2022-07-15T07:25:45;99832.16;;;26.69;56.51
46846;BME280;33947;46.804;134.252;2022-07-15T07:28:49;99828.66;;;26.85;56.46
46846;BME280;33947;46.804;134.252;2022-07-15T07:31:53;99818.81;;;26.93;55.88
46846;BME280;33947;46.804;134.252;2022-07-15T07:34:57;99824.31;;;27.09;55.76
46846;BME280;33947;46.804;134.252;2022-07-15T07:38:03;99820.75;;;27.25;57.33
46846;BME280;33947;46.804;134.252;2022-07-15T07:41:07;99819.91;;;27.25;56.19
46846;BME280;33947;46.804;134.252;2022-07-15T07:44:12;99815.81;;;27.29;56.39
46846;BME280;33947;46.804;134.252;2022-07-15T07:47:16;99828.03;;;27.08;59.34
46846;BME280;33947;46.804;134.252;2022-07-15T07:50:20;99822.44;;;27.26;55.94
46846;BME280;33947;46.804;134.252;2022-07-15T07:53:25;99819.44;;;27.54;52.69
46846;BME280;33947;46.804;134.252;2022-07-15T07:56:29;99819.56;;;27.44;53.05
46846;BME280;33947;46.804;134.252;2022-07-15T07:59:34;99833.03;;;27.29;53.34
46846;BME280;33947;46.804;134.252;2022-07-15T08:02:38;99832.84;;;27.14;54.07
46846;BME280;33947;46.804;134.252;2022-07-15T08:05:42;99834.50;;;27.07;53.95
46846;BME280;33947;46.804;134.252;2022-07-15T08:08:47;99830.56;;;26.93;53.16
46846;BME280;33947;46.804;134.252;2022-07-15T08:11:51;99847.41;;;26.89;54.09
46846;BME280;33947;46.804;134.252;2022-07-15T08:14:55;99839.78;;;26.92;54.74
46846;BME280;33947;46.804;134.252;2022-07-15T08:18:00;99845.53;;;26.89;54.29
46846;BME280;33947;46.804;134.252;2022-07-15T08:21:05;99847.19;;;26.82;54.83
46846;BME280;33947;46.804;134.252;2022-07-15T08:24:10;99847.16;;;26.73;54.50
46846;BME280;33947;46.804;134.252;2022-07-15T08:27:15;99822.00;;;26.45;55.14
46846;BME280;33947;46.804;134.252;2022-07-15T08:30:20;99844.16;;;26.50;55.78
46846;BME280;33947;46.804;134.252;2022-07-15T08:33:25;99855.00;;;26.42;56.08
46846;BME280;33947;46.804;134.252;2022-07-15T08:36:29;99850.22;;;26.36;55.49
46846;BME280;33947;46.804;134.252;2022-07-15T08:39:33;99856.25;;;26.21;56.62
46846;BME280;33947;46.804;134.252;2022-07-15T08:42:38;99848.69;;;26.15;54.98
46846;BME280;33947;46.804;134.252;2022-07-15T08:45:45;99860.50;;;25.97;54.69
46846;BME280;33947;46.804;134.252;2022-07-15T08:48:50;99855.03;;;25.97;53.00
46846;BME280;33947;46.804;134.252;2022-07-15T08:51:56;99858.94;;;25.77;54.61
46846;BME280;33947;46.804;134.252;2022-07-15T08:55:02;99853.81;;;25.74;53.67
46846;BME280;33947;46.804;134.252;2022-07-15T08:58:07;99866.19;;;25.68;54.37
46846;BME280;33947;46.804;134.252;2022-07-15T09:01:11;99861.44;;;25.52;54.34
46846;BME280;33947;46.804;134.252;2022-07-15T09:04:17;99869.09;;;25.38;54.00
46846;BME280;33947;46.804;134.252;2022-07-15T09:07:22;99869.56;;;25.34;53.28
46846;BME280;33947;46.804;134.252;2022-07-15T09:13:48;99869.22;;;25.19;53.98
46846;BME280;33947;46.804;134.252;2022-07-15T09:20:37;99866.97;;;24.96;54.59
46846;BME280;33947;46.804;134.252;2022-07-15T09:23:42;99870.41;;;24.88;54.75
46846;BME280;33947;46.804;134.252;2022-07-15T09:26:46;99865.16;;;24.87;55.02
46846;BME280;33947;46.804;134.252;2022-07-15T09:29:50;99865.75;;;24.80;54.79
46846;BME280;33947;46.804;134.252;2022-07-15T09:33:21;99856.91;;;24.68;55.52
46846;BME280;33947;46.804;134.252;2022-07-15T09:36:40;99856.66;;;24.62;55.10
46846;BME280;33947;46.804;134.252;2022-07-15T09:39:54;99859.72;;;24.49;55.52
46846;BME280;33947;46.804;134.252;2022-07-15T09:43:04;99860.72;;;24.48;55.78
46846;BME280;33947;46.804;134.252;2022-07-15T09:46:09;99866.00;;;24.49;55.86
46846;BME280;33947;46.804;134.252;2022-07-15T09:49:30;99869.72;;;24.48;55.91
46846;BME280;33947;46.804;134.252;2022-07-15T09:52:46;99870.75;;;24.37;56.72
46846;BME280;33947;46.804;134.252;2022-07-15T09:55:51;99875.47;;;24.35;56.55
46846;BME280;33947;46.804;134.252;2022-07-15T09:58:56;99879.63;;;24.30;57.40
46846;BME280;33947;46.804;134.252;2022-07-15T10:02:01;99877.38;;;24.25;56.69
46846;BME280;33947;46.804;134.252;2022-07-15T10:05:06;99877.81;;;24.20;56.80
46846;BME280;33947;46.804;134.252;2022-07-15T10:08:13;99891.09;;;24.04;58.08
46846;BME280;33947;46.804;134.252;2022-07-15T10:11:21;99887.69;;;23.92;58.65
46846;BME280;33947;46.804;134.252;2022-07-15T10:30:35;99902.25;;;23.81;57.25
46846;BME280;33947;46.804;134.252;2022-07-15T10:33:43;99909.06;;;23.75;57.68
46846;BME280;33947;46.804;134.252;2022-07-15T10:37:11;99904.94;;;23.61;57.72
46846;BME280;33947;46.804;134.252;2022-07-15T10:40:16;99908.94;;;23.67;57.34
46846;BME280;33947;46.804;134.252;2022-07-15T10:43:20;99902.09;;;23.63;57.34
46846;BME280;33947;46.804;134.252;2022-07-15T10:46:44;99904.94;;;23.61;56.65
46846;BME280;33947;46.804;134.252;2022-07-15T10:49:49;99898.09;;;23.57;56.21
46846;BME280;33947;46.804;134.252;2022-07-15T10:53:13;99897.81;;;23.60;55.72
46846;BME280;33947;46.804;134.252;2022-07-15T10:56:28;99894.34;;;23.48;55.60
46846;BME280;33947;46.804;134.252;2022-07-15T10:59:38;99907.63;;;23.41;55.71
46846;BME280;33947;46.804;134.252;2022-07-15T11:06:11;99920.81;;;23.15;56.54
46846;BME280;33947;46.804;134.252;2022-07-15T11:09:28;99924.53;;;23.14;56.37
46846;BME280;33947;46.804;134.252;2022-07-15T11:15:58;99937.88;;;22.96;56.71
46846;BME280;33947;46.804;134.252;2022-07-15T11:19:03;99948.09;;;22.92;56.75
46846;BME280;33947;46.804;134.252;2022-07-15T11:22:16;99956.63;;;22.88;56.83
46846;BME280;33947;46.804;134.252;2022-07-15T11:25:29;99970.16;;;22.78;57.29
46846;BME280;33947;46.804;134.252;2022-07-15T11:28:35;99968.50;;;22.65;57.49
46846;BME280;33947;46.804;134.252;2022-07-15T11:31:39;99971.00;;;22.57;57.94
46846;BME280;33947;46.804;134.252;2022-07-15T11:34:48;99964.88;;;22.55;57.99
46846;BME280;33947;46.804;134.252;2022-07-15T11:37:57;99969.22;;;22.46;58.46
46846;BME280;33947;46.804;134.252;2022-07-15T11:41:03;99976.59;;;22.44;58.39
46846;BME280;33947;46.804;134.252;2022-07-15T11:44:36;99984.63;;;22.46;58.40
46846;BME280;33947;46.804;134.252;2022-07-15T11:47:51;99984.41;;;22.37;58.69
46846;BME280;33947;46.804;134.252;2022-07-15T11:50:59;99984.59;;;22.24;58.91
46846;BME280;33947;46.804;134.252;2022-07-15T11:54:03;99987.56;;;22.21;59.03
46846;BME280;33947;46.804;134.252;2022-07-15T11:57:09;99981.44;;;22.19;58.89
46846;BME280;33947;46.804;134.252;2022-07-15T12:00:15;99990.66;;;22.17;58.98
46846;BME280;33947;46.804;134.252;2022-07-15T12:03:20;99991.75;;;22.14;58.92
46846;BME280;33947;46.804;134.252;2022-07-15T12:06:28;99961.13;;;21.92;59.29
46846;BME280;33947;46.804;134.252;2022-07-15T12:09:44;99990.56;;;22.07;58.88
46846;BME280;33947;46.804;134.252;2022-07-15T12:12:52;99992.53;;;22.05;58.78
46846;BME280;33947;46.804;134.252;2022-07-15T12:15:58;100003.50;;;22.03;58.47
46846;BME280;33947;46.804;134.252;2022-07-15T12:19:03;99999.84;;;21.93;58.80
46846;BME280;33947;46.804;134.252;2022-07-15T12:22:09;99999.09;;;21.91;58.93
46846;BME280;33947;46.804;134.252;2022-07-15T12:25:19;100001.47;;;21.84;59.11
46846;BME280;33947;46.804;134.252;2022-07-15T12:28:31;99988.44;;;21.78;59.38
46846;BME280;33947;46.804;134.252;2022-07-15T12:31:36;99988.84;;;21.73;59.67
46846;BME280;33947;46.804;134.252;2022-07-15T12:37:51;99993.16;;;21.64;59.81
46846;BME280;33947;46.804;134.252;2022-07-15T12:41:06;99997.59;;;21.65;59.98
46846;BME280;33947;46.804;134.252;2022-07-15T12:44:10;99994.88;;;21.65;59.67
46846;BME280;33947;46.804;134.252;2022-07-15T12:47:17;99994.25;;;21.62;59.79
46846;BME280;33947;46.804;134.252;2022-07-15T12:50:22;99989.97;;;21.59;59.73
46846;BME280;33947;46.804;134.252;2022-07-15T12:53:26;99985.28;;;21.61;59.75
46846;BME280;33947;46.804;134.252;2022-07-15T12:56:50;99976.44;;;21.59;59.96
46846;BME280;33947;46.804;134.252;2022-07-15T12:59:59;99985.81;;;21.44;61.45
46846;BME280;33947;46.804;134.252;2022-07-15T13:06:12;99979.09;;;21.27;61.20
46846;BME280;33947;46.804;134.252;2022-07-15T13:09:18;99977.22;;;21.38;60.78
46846;BME280;33947;46.804;134.252;2022-07-15T13:12:22;99978.44;;;21.34;61.16
46846;BME280;33947;46.804;134.252;2022-07-15T13:15:27;99977.84;;;21.31;61.69
46846;BME280;33947;46.804;134.252;2022-07-15T13:18:31;99982.63;;;21.27;62.11
46846;BME280;33947;46.804;134.252;2022-07-15T13:21:36;99987.66;;;21.20;63.90
46846;BME280;33947;46.804;134.252;2022-07-15T13:24:40;99974.31;;;21.19;63.09
46846;BME280;33947;46.804;134.252;2022-07-15T13:27:45;99983.38;;;21.18;62.47
46846;BME280;33947;46.804;134.252;2022-07-15T13:30:52;99977.28;;;21.04;63.52
46846;BME280;33947;46.804;134.252;2022-07-15T13:33:56;99972.94;;;21.13;62.42
46846;BME280;33947;46.804;134.252;2022-07-15T13:37:01;99976.28;;;21.17;62.25
46846;BME280;33947;46.804;134.252;2022-07-15T13:40:06;99970.38;;;21.00;63.09
46846;BME280;33947;46.804;134.252;2022-07-15T13:43:11;99966.34;;;20.94;65.55
46846;BME280;33947;46.804;134.252;2022-07-15T13:46:16;99968.97;;;20.72;65.69
46846;BME280;33947;46.804;134.252;2022-07-15T13:49:21;99966.44;;;20.70;65.49
46846;BME280;33947;46.804;134.252;2022-07-15T13:52:48;99972.41;;;20.74;67.35
46846;BME280;33947;46.804;134.252;2022-07-15T13:55:53;99962.72;;;20.60;68.06
46846;BME280;33947;46.804;134.252;2022-07-15T13:58:57;99964.66;;;20.58;68.27
46846;BME280;33947;46.804;134.252;2022-07-15T14:02:03;99958.53;;;20.44;67.67
46846;BME280;33947;46.804;134.252;2022-07-15T14:05:09;99960.47;;;20.42;68.40
46846;BME280;33947;46.804;134.252;2022-07-15T14:08:14;99960.41;;;20.66;64.22
46846;BME280;33947;46.804;134.252;2022-07-15T14:11:18;99954.91;;;20.79;64.22
46846;BME280;33947;46.804;134.252;2022-07-15T14:14:22;99961.69;;;20.85;62.68
46846;BME280;33947;46.804;134.252;2022-07-15T14:17:27;99960.31;;;20.79;62.63
46846;BME280;33947;46.804;134.252;2022-07-15T14:20:33;99963.63;;;20.83;62.42
46846;BME280;33947;46.804;134.252;2022-07-15T14:23:37;99967.44;;;20.92;61.87
46846;BME280;33947;46.804;134.252;2022-07-15T14:26:41;99957.28;;;20.84;62.15
46846;BME280;33947;46.804;134.252;2022-07-15T14:29:45;99954.69;;;20.82;61.91
46846;BME280;33947;46.804;134.252;2022-07-15T14:32:49;99953.19;;;20.90;60.81
46846;BME280;33947;46.804;134.252;2022-07-15T14:35:55;99953.81;;;20.82;61.34
46846;BME280;33947;46.804;134.252;2022-07-15T14:38:59;99954.91;;;20.91;60.51
46846;BME280;33947;46.804;134.252;2022-07-15T14:42:03;99951.47;;;20.77;60.97
46846;BME280;33947;46.804;134.252;2022-07-15T14:45:08;99961.03;;;20.70;61.51
46846;BME280;33947;46.804;134.252;2022-07-15T14:48:12;99964.06;;;20.65;62.39
46846;BME280;33947;46.804;134.252;2022-07-15T14:51:17;99964.44;;;20.61;62.03
46846;BME280;33947;46.804;134.252;2022-07-15T14:54:21;99965.94;;;20.65;62.60
46846;BME280;33947;46.804;134.252;2022-07-15T14:57:25;99971.09;;;20.68;63.09
46846;BME280;33947;46.804;134.252;2022-07-15T15:00:29;99975.22;;;20.61;63.66
46846;BME280;33947;46.804;134.252;2022-07-15T15:03:33;99974.13;;;20.52;64.35
46846;BME280;33947;46.804;134.252;2022-07-15T15:06:38;99987.25;;;20.57;63.06
46846;BME280;33947;46.804;134.252;2022-07-15T15:09:42;99980.75;;;20.59;64.20
46846;BME280;33947;46.804;134.252;2022-07-15T15:12:46;99983.69;;;20.56;64.99
46846;BME280;33947;46.804;134.252;2022-07-15T15:15:51;99991.63;;;20.46;65.02
46846;BME280;33947;46.804;134.252;2022-07-15T15:18:55;99979.22;;;20.44;64.67
46846;BME280;33947;46.804;134.252;2022-07-15T15:21:59;99984.13;;;20.38;66.90
46846;BME280;33947;46.804;134.252;2022-07-15T15:25:04;99982.31;;;20.39;67.88
46846;BME280;33947;46.804;134.252;2022-07-15T15:28:09;99981.91;;;20.32;68.04
46846;BME280;33947;46.804;134.252;2022-07-15T15:31:13;99974.28;;;20.26;67.81
46846;BME280;33947;46.804;134.252;2022-07-15T15:34:18;99961.63;;;20.15;68.37
46846;BME280;33947;46.804;134.252;2022-07-15T15:37:22;99983.13;;;20.28;68.54
46846;BME280;33947;46.804;134.252;2022-07-15T15:40:26;99981.41;;;20.27;68.23
46846;BME280;33947;46.804;134.252;2022-07-15T15:43:30;99990.31;;;20.16;68.27
46846;BME280;33947;46.804;134.252;2022-07-15T15:46:35;99994.91;;;20.27;66.90
46846;BME280;33947;46.804;134.252;2022-07-15T15:49:39;99999.88;;;20.20;68.70
46846;BME280;33947;46.804;134.252;2022-07-15T15:52:43;99999.00;;;20.08;69.34
46846;BME280;33947;46.804;134.252;2022-07-15T15:55:47;100003.88;;;20.03;71.05
46846;BME280;33947;46.804;134.252;2022-07-15T15:58:51;99996.47;;;19.94;72.55
46846;BME280;33947;46.804;134.252;2022-07-15T16:01:55;100000.91;;;19.82;71.77
46846;BME280;33947;46.804;134.252;2022-07-15T16:05:00;100004.06;;;19.76;72.49
46846;BME280;33947;46.804;134.252;2022-07-15T16:08:20;99996.41;;;19.83;71.39
46846;BME280;33947;46.804;134.252;2022-07-15T16:11:24;100002.63;;;19.83;71.14
46846;BME280;33947;46.804;134.252;2022-07-15T16:14:28;100004.19;;;19.74;71.83
46846;BME280;33947;46.804;134.252;2022-07-15T16:17:34;100001.50;;;19.74;72.30
46846;BME280;33947;46.804;134.252;2022-07-15T16:20:38;100000.13;;;19.69;73.24
46846;BME280;33947;46.804;134.252;2022-07-15T16:23:42;99991.53;;;19.63;73.56
46846;BME280;33947;46.804;134.252;2022-07-15T16:26:46;99987.84;;;19.64;73.75
46846;BME280;33947;46.804;134.252;2022-07-15T16:29:51;99995.19;;;19.62;72.55
46846;BME280;33947;46.804;134.252;2022-07-15T16:32:55;99999.69;;;19.62;72.18
46846;BME280;33947;46.804;134.252;2022-07-15T16:35:59;99952.63;;;19.30;74.01
46846;BME280;33947;46.804;134.252;2022-07-15T16:39:10;99989.06;;;19.60;72.92